sensor_id;sensor_type;location;lat;lon;timestamp;P1;durP1;ratioP1;P2;durP2;ratioP2
12222;SDS011;6174;49.058;8.524;2024-02-14T06:02:43;2.90;;;2.00;;
12222;SDS011;6174;49.058;8.524;2024-02-14T06:05:13;5.17;;;1.80;;
12222;SDS011;6174;49.058;8.524;2024-02-14T06:07:40;2.20;;;2.00;;
12222;SDS011;6174;49.058;8.524;2024-02-14T06:10:10;2.80;;;2.13;;
12222;SDS011;6174;49.058;8.524;2024-02-14T06:12:37;2.27;;;2.07;;
12222;SDS011;6174;49.058;8.524;2024-02-14T06:15:08;2.23;;;2.00;;
12222;SDS011;6174;49.058;8.524;2024-02-14T06:18:00;2.53;;;2.13;;
12222;SDS011;6174;49.058;8.524;2024-02-14T06:20:38;2.57;;;1.90;;
12222;SDS011;6174;49.058;8.524;2024-02-14T06:26:22;2.93;;;2.33;;
12222;SDS011;6174;49.058;8.524;2024-02-14T06:29:37;3.47;;;2.13;;
12222;SDS011;6174;49.058;8.524;2024-02-14T06:32:18;3.37;;;2.60;;
12222;SDS011;6174;49.058;8.524;2024-02-14T06:34:46;4.60;;;3.80;;
12222;SDS011;6174;49.058;8.524;2024-02-14T06:37:12;6.17;;;3.97;;
12222;SDS011;6174;49.058;8.524;2024-02-14T06:39:39;3.53;;;3.10;;
12222;SDS011;6174;49.058;8.524;2024-02-14T06:42:06;4.17;;;3.43;;
12222;SDS011;6174;49.058;8.524;2024-02-14T06:44:33;3.40;;;3.10;;
12222;SDS011;6174;49.058;8.524;2024-02-14T06:46:59;9.73;;;7.37;;
12222;SDS011;6174;49.058;8.524;2024-02-14T06:49:26;28.30;;;18.73;;
12222;SDS011;6174;49.058;8.524;2024-02-14T06:51:54;62.30;;;41.00;;
12222;SDS011;6174;49.058;8.524;2024-02-14T06:54:21;23.37;;;21.07;;
12222;SDS011;6174;49.058;8.524;2024-02-14T06:56:50;5.43;;;4.97;;
12222;SDS011;6174;49.058;8.524;2024-02-14T06:59:17;4.27;;;3.50;;
12222;SDS011;6174;49.058;8.524;2024-02-14T07:01:44;3.50;;;2.63;;
12222;SDS011;6174;49.058;8.524;2024-02-14T07:04:11;2.60;;;2.40;;
12222;SDS011;6174;49.058;8.524;2024-02-14T07:06:37;4.37;;;3.00;;
12222;SDS011;6174;49.058;8.524;2024-02-14T07:09:05;3.80;;;2.40;;
12222;SDS011;6174;49.058;8.524;2024-02-14T07:11:32;4.40;;;2.40;;
12222;SDS011;6174;49.058;8.524;2024-02-14T07:13:59;4.30;;;3.03;;
12222;SDS011;6174;49.058;8.524;2024-02-14T07:16:26;8.17;;;4.53;;
12222;SDS011;6174;49.058;8.524;2024-02-14T07:18:53;5.23;;;4.07;;
12222;SDS011;6174;49.058;8.524;2024-02-14T07:21:20;5.60;;;3.47;;
12222;SDS011;6174;49.058;8.524;2024-02-14T07:23:47;4.27;;;2.90;;
12222;SDS011;6174;49.058;8.524;2024-02-14T07:26:15;3.93;;;2.73;;
12222;SDS011;6174;49.058;8.524;2024-02-14T07:28:42;6.30;;;3.57;;
12222;SDS011;6174;49.058;8.524;2024-02-14T07:31:09;5.50;;;3.20;;
12222;SDS011;6174;49.058;8.524;2024-02-14T07:33:36;8.67;;;4.10;;
12222;SDS011;6174;49.058;8.524;2024-02-14T07:36:03;21.13;;;17.63;;
12222;SDS011;6174;49.058;8.524;2024-02-14T07:38:30;12.10;;;10.33;;
12222;SDS011;6174;49.058;8.524;2024-02-14T07:40:56;6.90;;;4.17;;
12222;SDS011;6174;49.058;8.524;2024-02-14T07:43:24;10.73;;;6.90;;
12222;SDS011;6174;49.058;8.524;2024-02-14T07:45:51;7.20;;;5.50;;
12222;SDS011;6174;49.058;8.524;2024-02-14T07:48:21;6.87;;;3.77;;
12222;SDS011;6174;49.058;8.524;2024-02-14T07:50:48;4.97;;;4.40;;
12222;SDS011;6174;49.058;8.524;2024-02-14T07:53:15;4.57;;;3.90;;
12222;SDS011;6174;49.058;8.524;2024-02-14T07:55:41;7.73;;;4.50;;
12222;SDS011;6174;49.058;8.524;2024-02-14T07:58:08;5.70;;;3.10;;
12222;SDS011;6174;49.058;8.524;2024-02-14T08:00:37;4.33;;;3.93;;
12222;SDS011;6174;49.058;8.524;2024-02-14T08:03:03;3.10;;;2.80;;
12222;SDS011;6174;49.058;8.524;2024-02-14T08:05:31;3.33;;;2.50;;
12222;SDS011;6174;49.058;8.524;2024-02-14T08:07:58;2.97;;;2.57;;
12222;SDS011;6174;49.058;8.524;2024-02-14T08:10:25;2.80;;;2.37;;
12222;SDS011;6174;49.058;8.524;2024-02-14T08:12:52;3.83;;;2.40;;
12222;SDS011;6174;49.058;8.524;2024-02-14T08:15:18;5.03;;;2.43;;
12222;SDS011;6174;49.058;8.524;2024-02-14T08:17:47;3.10;;;2.57;;
12222;SDS011;6174;49.058;8.524;2024-02-14T08:20:14;4.60;;;3.03;;
12222;SDS011;6174;49.058;8.524;2024-02-14T08:22:40;5.33;;;3.13;;
12222;SDS011;6174;49.058;8.524;2024-02-14T08:25:08;4.13;;;3.00;;
12222;SDS011;6174;49.058;8.524;2024-02-14T08:27:35;5.27;;;3.60;;
12222;SDS011;6174;49.058;8.524;2024-02-14T08:30:01;6.40;;;4.03;;
12222;SDS011;6174;49.058;8.524;2024-02-14T08:32:30;5.87;;;3.77;;
12222;SDS011;6174;49.058;8.524;2024-02-14T08:34:59;5.67;;;3.70;;
12222;SDS011;6174;49.058;8.524;2024-02-14T08:37:26;6.47;;;3.80;;
12222;SDS011;6174;49.058;8.524;2024-02-14T08:39:53;4.53;;;2.50;;
12222;SDS011;6174;49.058;8.524;2024-02-14T08:42:20;4.90;;;2.03;;
12222;SDS011;6174;49.058;8.524;2024-02-14T08:44:46;3.20;;;2.00;;
12222;SDS011;6174;49.058;8.524;2024-02-14T08:47:13;3.63;;;1.90;;
12222;SDS011;6174;49.058;8.524;2024-02-14T08:49:40;3.00;;;2.40;;
12222;SDS011;6174;49.058;8.524;2024-02-14T08:52:08;3.00;;;2.10;;
12222;SDS011;6174;49.058;8.524;2024-02-14T08:54:35;2.23;;;1.67;;
12222;SDS011;6174;49.058;8.524;2024-02-14T08:57:02;4.37;;;2.23;;
12222;SDS011;6174;49.058;8.524;2024-02-14T08:59:29;2.97;;;2.37;;
12222;SDS011;6174;49.058;8.524;2024-02-14T09:01:56;2.40;;;2.20;;
12222;SDS011;6174;49.058;8.524;2024-02-14T09:04:23;3.93;;;2.13;;
12222;SDS011;6174;49.058;8.524;2024-02-14T09:06:50;2.57;;;2.33;;
12222;SDS011;6174;49.058;8.524;2024-02-14T09:09:18;2.93;;;2.17;;
12222;SDS011;6174;49.058;8.524;2024-02-14T09:11:48;2.53;;;1.80;;
12222;SDS011;6174;49.058;8.524;2024-02-14T09:14:15;3.57;;;1.73;;
12222;SDS011;6174;49.058;8.524;2024-02-14T09:16:42;2.50;;;1.80;;
12222;SDS011;6174;49.058;8.524;2024-02-14T09:19:10;4.17;;;2.10;;
12222;SDS011;6174;49.058;8.524;2024-02-14T09:21:38;3.17;;;2.13;;
12222;SDS011;6174;49.058;8.524;2024-02-14T09:24:05;3.33;;;2.10;;
12222;SDS011;6174;49.058;8.524;2024-02-14T09:26:33;2.87;;;2.03;;
12222;SDS011;6174;49.058;8.524;2024-02-14T09:29:00;2.03;;;1.70;;
12222;SDS011;6174;49.058;8.524;2024-02-14T09:31:26;4.60;;;2.13;;
12222;SDS011;6174;49.058;8.524;2024-02-14T09:33:53;2.23;;;1.70;;
12222;SDS011;6174;49.058;8.524;2024-02-14T09:36:23;3.17;;;1.80;;
12222;SDS011;6174;49.058;8.524;2024-02-14T09:38:50;2.20;;;2.00;;
12222;SDS011;6174;49.058;8.524;2024-02-14T09:41:20;3.10;;;1.80;;
12222;SDS011;6174;49.058;8.524;2024-02-14T09:43:52;2.37;;;1.93;;
12222;SDS011;6174;49.058;8.524;2024-02-14T09:46:19;5.57;;;1.93;;
12222;SDS011;6174;49.058;8.524;2024-02-14T09:48:49;3.17;;;1.50;;
12222;SDS011;6174;49.058;8.524;2024-02-14T09:51:17;2.33;;;1.70;;
12222;SDS011;6174;49.058;8.524;2024-02-14T09:53:44;2.43;;;1.67;;
12222;SDS011;6174;49.058;8.524;2024-02-14T09:56:12;3.50;;;1.70;;
12222;SDS011;6174;49.058;8.524;2024-02-14T09:58:42;1.93;;;1.70;;
12222;SDS011;6174;49.058;8.524;2024-02-14T10:01:11;1.93;;;1.77;;
12222;SDS011;6174;49.058;8.524;2024-02-14T10:03:38;2.10;;;1.53;;
12222;SDS011;6174;49.058;8.524;2024-02-14T10:06:05;2.77;;;1.90;;
12222;SDS011;6174;49.058;8.524;2024-02-14T10:08:31;1.97;;;1.50;;
12222;SDS011;6174;49.058;8.524;2024-02-14T10:10:58;1.77;;;1.67;;
12222;SDS011;6174;49.058;8.524;2024-02-14T10:13:26;2.60;;;1.80;;
12222;SDS011;6174;49.058;8.524;2024-02-14T10:15:54;1.87;;;1.50;;
12222;SDS011;6174;49.058;8.524;2024-02-14T10:18:23;1.63;;;1.53;;
12222;SDS011;6174;49.058;8.524;2024-02-14T10:20:54;2.53;;;1.53;;
12222;SDS011;6174;49.058;8.524;2024-02-14T10:23:22;2.50;;;1.70;;
12222;SDS011;6174;49.058;8.524;2024-02-14T10:25:49;1.87;;;1.60;;
12222;SDS011;6174;49.058;8.524;2024-02-14T10:28:16;2.00;;;1.60;;
12222;SDS011;6174;49.058;8.524;2024-02-14T10:30:45;2.50;;;1.67;;
12222;SDS011;6174;49.058;8.524;2024-02-14T10:33:12;3.97;;;1.77;;
12222;SDS011;6174;49.058;8.524;2024-02-14T10:35:42;2.50;;;1.83;;
12222;SDS011;6174;49.058;8.524;2024-02-14T10:38:10;2.43;;;1.63;;
12222;SDS011;6174;49.058;8.524;2024-02-14T10:40:38;2.47;;;1.80;;
12222;SDS011;6174;49.058;8.524;2024-02-14T10:43:05;2.60;;;1.80;;
12222;SDS011;6174;49.058;8.524;2024-02-14T10:45:34;2.27;;;1.70;;
12222;SDS011;6174;49.058;8.524;2024-02-14T10:48:01;1.80;;;1.47;;
12222;SDS011;6174;49.058;8.524;2024-02-14T10:50:29;1.70;;;1.50;;
12222;SDS011;6174;49.058;8.524;2024-02-14T10:53:04;2.10;;;1.63;;
12222;SDS011;6174;49.058;8.524;2024-02-14T10:55:32;2.17;;;1.53;;
12222;SDS011;6174;49.058;8.524;2024-02-14T10:58:00;2.00;;;1.40;;
12222;SDS011;6174;49.058;8.524;2024-02-14T11:00:28;3.73;;;1.70;;
12222;SDS011;6174;49.058;8.524;2024-02-14T11:02:57;2.80;;;1.90;;
12222;SDS011;6174;49.058;8.524;2024-02-14T11:05:25;1.53;;;1.30;;
12222;SDS011;6174;49.058;8.524;2024-02-14T11:07:52;2.43;;;1.40;;
12222;SDS011;6174;49.058;8.524;2024-02-14T11:10:21;2.90;;;1.60;;
12222;SDS011;6174;49.058;8.524;2024-02-14T11:12:48;2.47;;;1.60;;
12222;SDS011;6174;49.058;8.524;2024-02-14T11:15:20;2.57;;;1.60;;
12222;SDS011;6174;49.058;8.524;2024-02-14T11:17:49;1.73;;;1.40;;
12222;SDS011;6174;49.058;8.524;2024-02-14T11:20:17;1.80;;;1.50;;
12222;SDS011;6174;49.058;8.524;2024-02-14T11:22:54;2.27;;;1.57;;
12222;SDS011;6174;49.058;8.524;2024-02-14T11:25:24;1.93;;;1.70;;
12222;SDS011;6174;49.058;8.524;2024-02-14T11:27:57;2.90;;;1.77;;
12222;SDS011;6174;49.058;8.524;2024-02-14T11:30:30;1.73;;;1.40;;
12222;SDS011;6174;49.058;8.524;2024-02-14T11:33:10;1.60;;;1.50;;
12222;SDS011;6174;49.058;8.524;2024-02-14T11:35:39;1.70;;;1.60;;
12222;SDS011;6174;49.058;8.524;2024-02-14T11:38:06;1.50;;;1.37;;
12222;SDS011;6174;49.058;8.524;2024-02-14T11:40:35;2.83;;;1.80;;
12222;SDS011;6174;49.058;8.524;2024-02-14T11:43:03;1.57;;;1.33;;
12222;SDS011;6174;49.058;8.524;2024-02-14T11:45:30;2.47;;;1.80;;
12222;SDS011;6174;49.058;8.524;2024-02-14T11:47:57;2.17;;;1.97;;
12222;SDS011;6174;49.058;8.524;2024-02-14T11:50:24;3.20;;;2.20;;
12222;SDS011;6174;49.058;8.524;2024-02-14T11:52:51;1.77;;;1.60;;
12222;SDS011;6174;49.058;8.524;2024-02-14T11:55:18;1.90;;;1.70;;
12222;SDS011;6174;49.058;8.524;2024-02-14T11:57:54;2.87;;;1.80;;
12222;SDS011;6174;49.058;8.524;2024-02-14T12:00:21;2.40;;;1.40;;
12222;SDS011;6174;49.058;8.524;2024-02-14T12:02:49;2.50;;;2.00;;
12222;SDS011;6174;49.058;8.524;2024-02-14T12:05:16;2.33;;;1.43;;
12222;SDS011;6174;49.058;8.524;2024-02-14T12:07:44;1.87;;;1.70;;
12222;SDS011;6174;49.058;8.524;2024-02-14T12:10:10;1.60;;;1.17;;
12222;SDS011;6174;49.058;8.524;2024-02-14T12:12:39;4.07;;;1.37;;
12222;SDS011;6174;49.058;8.524;2024-02-14T12:15:08;1.17;;;1.03;;
12222;SDS011;6174;49.058;8.524;2024-02-14T12:17:36;2.37;;;1.37;;
12222;SDS011;6174;49.058;8.524;2024-02-14T12:20:07;1.47;;;1.20;;
12222;SDS011;6174;49.058;8.524;2024-02-14T12:22:36;2.27;;;1.50;;
12222;SDS011;6174;49.058;8.524;2024-02-14T12:25:03;1.67;;;1.50;;
12222;SDS011;6174;49.058;8.524;2024-02-14T12:27:32;1.80;;;0.97;;
12222;SDS011;6174;49.058;8.524;2024-02-14T12:30:02;1.57;;;0.97;;
12222;SDS011;6174;49.058;8.524;2024-02-14T12:32:31;1.37;;;1.20;;
12222;SDS011;6174;49.058;8.524;2024-02-14T12:34:58;1.20;;;1.10;;
12222;SDS011;6174;49.058;8.524;2024-02-14T12:37:25;2.13;;;1.00;;
12222;SDS011;6174;49.058;8.524;2024-02-14T12:39:52;1.30;;;1.20;;
12222;SDS011;6174;49.058;8.524;2024-02-14T12:42:20;2.23;;;1.50;;
12222;SDS011;6174;49.058;8.524;2024-02-14T12:44:50;3.17;;;1.30;;
12222;SDS011;6174;49.058;8.524;2024-02-14T12:47:17;1.87;;;1.33;;
12222;SDS011;6174;49.058;8.524;2024-02-14T12:49:47;2.00;;;1.50;;
12222;SDS011;6174;49.058;8.524;2024-02-14T12:52:14;1.00;;;1.00;;
12222;SDS011;6174;49.058;8.524;2024-02-14T12:54:42;3.20;;;1.63;;
12222;SDS011;6174;49.058;8.524;2024-02-14T12:57:09;0.93;;;0.90;;
12222;SDS011;6174;49.058;8.524;2024-02-14T12:59:36;1.40;;;1.10;;
12222;SDS011;6174;49.058;8.524;2024-02-14T13:02:03;1.90;;;1.20;;
12222;SDS011;6174;49.058;8.524;2024-02-14T13:04:32;1.67;;;1.10;;
12222;SDS011;6174;49.058;8.524;2024-02-14T13:07:00;1.50;;;1.20;;
12222;SDS011;6174;49.058;8.524;2024-02-14T13:09:27;1.70;;;1.40;;
12222;SDS011;6174;49.058;8.524;2024-02-14T13:11:54;1.50;;;1.20;;
12222;SDS011;6174;49.058;8.524;2024-02-14T13:14:19;1.50;;;1.07;;
12222;SDS011;6174;49.058;8.524;2024-02-14T13:16:46;1.50;;;1.00;;
12222;SDS011;6174;49.058;8.524;2024-02-14T13:19:13;1.47;;;1.37;;
12222;SDS011;6174;49.058;8.524;2024-02-14T13:21:40;1.00;;;0.90;;
12222;SDS011;6174;49.058;8.524;2024-02-14T13:24:11;1.40;;;1.30;;
12222;SDS011;6174;49.058;8.524;2024-02-14T13:26:39;1.10;;;1.10;;
12222;SDS011;6174;49.058;8.524;2024-02-14T13:29:05;1.97;;;1.27;;
12222;SDS011;6174;49.058;8.524;2024-02-14T13:31:33;2.13;;;1.10;;
12222;SDS011;6174;49.058;8.524;2024-02-14T13:33:59;1.50;;;1.40;;
12222;SDS011;6174;49.058;8.524;2024-02-14T13:36:28;1.23;;;1.03;;
12222;SDS011;6174;49.058;8.524;2024-02-14T13:38:56;1.40;;;1.00;;
12222;SDS011;6174;49.058;8.524;2024-02-14T13:41:25;1.20;;;1.07;;
12222;SDS011;6174;49.058;8.524;2024-02-14T13:43:51;1.43;;;1.10;;
12222;SDS011;6174;49.058;8.524;2024-02-14T13:46:18;2.25;;;1.25;;
12222;SDS011;6174;49.058;8.524;2024-02-14T13:48:45;1.00;;;0.80;;
12222;SDS011;6174;49.058;8.524;2024-02-14T13:51:12;1.37;;;1.00;;
12222;SDS011;6174;49.058;8.524;2024-02-14T13:53:38;1.30;;;1.20;;
12222;SDS011;6174;49.058;8.524;2024-02-14T13:56:08;1.70;;;1.47;;
12222;SDS011;6174;49.058;8.524;2024-02-14T13:58:37;2.60;;;1.40;;
12222;SDS011;6174;49.058;8.524;2024-02-14T14:01:04;1.23;;;1.10;;
12222;SDS011;6174;49.058;8.524;2024-02-14T14:03:32;1.30;;;1.17;;
12222;SDS011;6174;49.058;8.524;2024-02-14T14:06:00;1.07;;;1.07;;
12222;SDS011;6174;49.058;8.524;2024-02-14T14:08:30;1.50;;;1.10;;
12222;SDS011;6174;49.058;8.524;2024-02-14T14:10:57;1.93;;;1.30;;
12222;SDS011;6174;49.058;8.524;2024-02-14T14:13:23;1.23;;;1.10;;
12222;SDS011;6174;49.058;8.524;2024-02-14T14:15:55;1.40;;;1.30;;
12222;SDS011;6174;49.058;8.524;2024-02-14T14:18:22;1.33;;;1.23;;
12222;SDS011;6174;49.058;8.524;2024-02-14T14:20:49;1.00;;;1.00;;
12222;SDS011;6174;49.058;8.524;2024-02-14T14:23:15;2.63;;;1.20;;
12222;SDS011;6174;49.058;8.524;2024-02-14T14:25:42;1.90;;;1.47;;
12222;SDS011;6174;49.058;8.524;2024-02-14T14:28:09;1.87;;;1.00;;
12222;SDS011;6174;49.058;8.524;2024-02-14T14:30:36;1.20;;;1.10;;
12222;SDS011;6174;49.058;8.524;2024-02-14T14:33:05;1.40;;;1.30;;
12222;SDS011;6174;49.058;8.524;2024-02-14T14:35:32;1.43;;;1.33;;
12222;SDS011;6174;49.058;8.524;2024-02-14T14:38:01;1.63;;;1.20;;
12222;SDS011;6174;49.058;8.524;2024-02-14T14:40:28;1.23;;;1.10;;
12222;SDS011;6174;49.058;8.524;2024-02-14T14:42:55;2.27;;;1.60;;
12222;SDS011;6174;49.058;8.524;2024-02-14T14:45:22;1.40;;;1.30;;
12222;SDS011;6174;49.058;8.524;2024-02-14T14:47:49;1.60;;;1.27;;
12222;SDS011;6174;49.058;8.524;2024-02-14T14:50:17;2.60;;;1.50;;
12222;SDS011;6174;49.058;8.524;2024-02-14T14:52:44;1.80;;;1.33;;
12222;SDS011;6174;49.058;8.524;2024-02-14T14:55:11;1.37;;;1.27;;
12222;SDS011;6174;49.058;8.524;2024-02-14T14:57:41;2.13;;;1.57;;
12222;SDS011;6174;49.058;8.524;2024-02-14T15:00:08;1.43;;;1.30;;
12222;SDS011;6174;49.058;8.524;2024-02-14T15:02:37;2.40;;;1.70;;
12222;SDS011;6174;49.058;8.524;2024-02-14T15:05:05;1.40;;;1.30;;
12222;SDS011;6174;49.058;8.524;2024-02-14T15:07:34;1.37;;;1.27;;
12222;SDS011;6174;49.058;8.524;2024-02-14T15:10:01;1.80;;;1.43;;
12222;SDS011;6174;49.058;8.524;2024-02-14T15:12:28;1.40;;;1.30;;
12222;SDS011;6174;49.058;8.524;2024-02-14T15:14:55;2.00;;;1.33;;
12222;SDS011;6174;49.058;8.524;2024-02-14T15:17:21;3.43;;;1.40;;
12222;SDS011;6174;49.058;8.524;2024-02-14T15:19:48;2.10;;;1.40;;
12222;SDS011;6174;49.058;8.524;2024-02-14T15:22:15;1.50;;;1.40;;
12222;SDS011;6174;49.058;8.524;2024-02-14T15:24:43;1.43;;;1.13;;
12222;SDS011;6174;49.058;8.524;2024-02-14T15:27:10;3.13;;;1.40;;
12222;SDS011;6174;49.058;8.524;2024-02-14T15:29:46;1.47;;;1.37;;
12222;SDS011;6174;49.058;8.524;2024-02-14T15:32:30;1.33;;;1.23;;
12222;SDS011;6174;49.058;8.524;2024-02-14T15:35:14;1.47;;;1.30;;
12222;SDS011;6174;49.058;8.524;2024-02-14T15:37:41;1.27;;;1.17;;
12222;SDS011;6174;49.058;8.524;2024-02-14T15:40:11;1.40;;;1.30;;
12222;SDS011;6174;49.058;8.524;2024-02-14T15:42:38;2.63;;;1.57;;
12222;SDS011;6174;49.058;8.524;2024-02-14T15:45:06;2.63;;;1.40;;
12222;SDS011;6174;49.058;8.524;2024-02-14T15:47:35;2.80;;;1.37;;
12222;SDS011;6174;49.058;8.524;2024-02-14T15:50:02;1.40;;;1.13;;
12222;SDS011;6174;49.058;8.524;2024-02-14T15:52:32;1.77;;;1.30;;
12222;SDS011;6174;49.058;8.524;2024-02-14T15:54:59;2.20;;;1.13;;
12222;SDS011;6174;49.058;8.524;2024-02-14T15:57:27;1.30;;;1.20;;
12222;SDS011;6174;49.058;8.524;2024-02-14T15:59:54;1.43;;;1.20;;
12222;SDS011;6174;49.058;8.524;2024-02-14T16:02:21;1.67;;;1.27;;
12222;SDS011;6174;49.058;8.524;2024-02-14T16:04:48;1.43;;;1.10;;
12222;SDS011;6174;49.058;8.524;2024-02-14T16:07:14;1.77;;;1.67;;
12222;SDS011;6174;49.058;8.524;2024-02-14T16:09:41;1.73;;;1.40;;
12222;SDS011;6174;49.058;8.524;2024-02-14T16:12:08;1.87;;;1.70;;
12222;SDS011;6174;49.058;8.524;2024-02-14T16:14:36;1.30;;;1.20;;
12222;SDS011;6174;49.058;8.524;2024-02-14T16:17:03;1.40;;;1.30;;
12222;SDS011;6174;49.058;8.524;2024-02-14T16:19:30;1.43;;;1.30;;
12222;SDS011;6174;49.058;8.524;2024-02-14T16:21:57;2.17;;;1.50;;
12222;SDS011;6174;49.058;8.524;2024-02-14T16:24:25;1.40;;;1.30;;
12222;SDS011;6174;49.058;8.524;2024-02-14T16:26:53;1.53;;;1.30;;
12222;SDS011;6174;49.058;8.524;2024-02-14T16:29:20;1.87;;;1.37;;
12222;SDS011;6174;49.058;8.524;2024-02-14T16:31:48;1.43;;;1.33;;
12222;SDS011;6174;49.058;8.524;2024-02-14T16:34:15;2.13;;;1.43;;
12222;SDS011;6174;49.058;8.524;2024-02-14T16:36:42;2.30;;;1.40;;
12222;SDS011;6174;49.058;8.524;2024-02-14T16:39:09;2.27;;;1.23;;
12222;SDS011;6174;49.058;8.524;2024-02-14T16:41:36;1.45;;;1.30;;
12222;SDS011;6174;49.058;8.524;2024-02-14T16:44:03;1.30;;;1.20;;
12222;SDS011;6174;49.058;8.524;2024-02-14T16:46:30;1.33;;;1.23;;
12222;SDS011;6174;49.058;8.524;2024-02-14T16:48:58;1.20;;;1.10;;
12222;SDS011;6174;49.058;8.524;2024-02-14T16:51:25;1.60;;;1.10;;
12222;SDS011;6174;49.058;8.524;2024-02-14T16:53:52;1.40;;;1.23;;
12222;SDS011;6174;49.058;8.524;2024-02-14T16:56:20;1.30;;;1.20;;
12222;SDS011;6174;49.058;8.524;2024-02-14T16:58:46;1.00;;;1.00;;
12222;SDS011;6174;49.058;8.524;2024-02-14T17:01:13;0.97;;;0.90;;
12222;SDS011;6174;49.058;8.524;2024-02-14T17:03:40;2.57;;;1.47;;
12222;SDS011;6174;49.058;8.524;2024-02-14T17:06:08;1.17;;;1.17;;
12222;SDS011;6174;49.058;8.524;2024-02-14T17:08:35;1.70;;;1.40;;
12222;SDS011;6174;49.058;8.524;2024-02-14T17:11:02;1.30;;;1.20;;
12222;SDS011;6174;49.058;8.524;2024-02-14T19:06:13;4.53;;;2.40;;
12222;SDS011;6174;49.058;8.524;2024-02-14T19:08:41;2.60;;;2.40;;
12222;SDS011;6174;49.058;8.524;2024-02-14T19:11:11;3.37;;;2.10;;
12222;SDS011;6174;49.058;8.524;2024-02-14T19:13:38;2.40;;;2.20;;
12222;SDS011;6174;49.058;8.524;2024-02-14T19:16:05;3.47;;;2.50;;
12222;SDS011;6174;49.058;8.524;2024-02-14T19:18:34;7.63;;;5.43;;
12222;SDS011;6174;49.058;8.524;2024-02-14T19:21:00;4.20;;;3.73;;
12222;SDS011;6174;49.058;8.524;2024-02-14T19:23:29;3.23;;;2.80;;
12222;SDS011;6174;49.058;8.524;2024-02-14T19:26:00;2.40;;;2.20;;
12222;SDS011;6174;49.058;8.524;2024-02-14T19:28:27;2.57;;;2.20;;
12222;SDS011;6174;49.058;8.524;2024-02-14T19:30:54;2.53;;;2.10;;
12222;SDS011;6174;49.058;8.524;2024-02-14T19:33:21;3.10;;;2.30;;
12222;SDS011;6174;49.058;8.524;2024-02-14T19:35:47;4.00;;;3.20;;
12222;SDS011;6174;49.058;8.524;2024-02-14T19:38:16;4.00;;;3.37;;
12222;SDS011;6174;49.058;8.524;2024-02-14T19:40:44;5.57;;;4.40;;
12222;SDS011;6174;49.058;8.524;2024-02-14T19:43:11;3.60;;;3.00;;
12222;SDS011;6174;49.058;8.524;2024-02-14T19:45:37;2.53;;;2.33;;
12222;SDS011;6174;49.058;8.524;2024-02-14T19:48:04;2.53;;;2.20;;
12222;SDS011;6174;49.058;8.524;2024-02-14T19:50:33;2.37;;;1.80;;
12222;SDS011;6174;49.058;8.524;2024-02-14T19:53:00;2.37;;;1.90;;
12222;SDS011;6174;49.058;8.524;2024-02-14T19:55:27;2.33;;;1.80;;
12222;SDS011;6174;49.058;8.524;2024-02-14T19:57:56;2.30;;;2.10;;
12222;SDS011;6174;49.058;8.524;2024-02-14T20:00:22;1.93;;;1.80;;
12222;SDS011;6174;49.058;8.524;2024-02-14T20:02:49;3.37;;;2.00;;
12222;SDS011;6174;49.058;8.524;2024-02-14T20:05:16;2.00;;;1.80;;
12222;SDS011;6174;49.058;8.524;2024-02-14T20:07:44;2.70;;;2.03;;
12222;SDS011;6174;49.058;8.524;2024-02-14T20:10:11;1.60;;;1.50;;
12222;SDS011;6174;49.058;8.524;2024-02-14T20:12:38;1.90;;;1.80;;
12222;SDS011;6174;49.058;8.524;2024-02-14T20:15:07;2.33;;;2.13;;
12222;SDS011;6174;49.058;8.524;2024-02-14T20:17:34;2.93;;;2.63;;
12222;SDS011;6174;49.058;8.524;2024-02-14T20:20:01;5.23;;;3.90;;
12222;SDS011;6174;49.058;8.524;2024-02-14T20:22:30;5.43;;;4.37;;
12222;SDS011;6174;49.058;8.524;2024-02-14T20:24:58;7.27;;;5.53;;
12222;SDS011;6174;49.058;8.524;2024-02-14T20:27:25;4.47;;;4.07;;
12222;SDS011;6174;49.058;8.524;2024-02-14T20:29:51;5.57;;;4.33;;
12222;SDS011;6174;49.058;8.524;2024-02-14T20:32:20;3.50;;;3.20;;
12222;SDS011;6174;49.058;8.524;2024-02-14T20:34:46;3.30;;;2.90;;
12222;SDS011;6174;49.058;8.524;2024-02-14T20:37:14;6.43;;;5.70;;
12222;SDS011;6174;49.058;8.524;2024-02-14T20:39:40;5.17;;;4.40;;
12222;SDS011;6174;49.058;8.524;2024-02-14T20:42:07;3.73;;;3.37;;
12222;SDS011;6174;49.058;8.524;2024-02-14T20:44:35;4.17;;;3.17;;
12222;SDS011;6174;49.058;8.524;2024-02-14T20:47:02;4.33;;;3.80;;
12222;SDS011;6174;49.058;8.524;2024-02-14T20:49:31;3.80;;;2.70;;
12222;SDS011;6174;49.058;8.524;2024-02-14T20:51:58;3.97;;;3.10;;
12222;SDS011;6174;49.058;8.524;2024-02-14T20:54:25;3.63;;;2.83;;
12222;SDS011;6174;49.058;8.524;2024-02-14T20:56:51;3.93;;;2.80;;
12222;SDS011;6174;49.058;8.524;2024-02-14T20:59:18;3.60;;;3.17;;
12222;SDS011;6174;49.058;8.524;2024-02-14T21:01:45;4.37;;;2.90;;
12222;SDS011;6174;49.058;8.524;2024-02-14T21:04:12;3.30;;;3.00;;
12222;SDS011;6174;49.058;8.524;2024-02-14T21:06:41;4.07;;;3.67;;
12222;SDS011;6174;49.058;8.524;2024-02-14T21:09:07;3.47;;;3.17;;
12222;SDS011;6174;49.058;8.524;2024-02-14T21:11:35;3.90;;;3.50;;
12222;SDS011;6174;49.058;8.524;2024-02-14T21:14:02;4.70;;;3.00;;
12222;SDS011;6174;49.058;8.524;2024-02-14T21:16:28;3.97;;;3.17;;
12222;SDS011;6174;49.058;8.524;2024-02-14T21:18:55;3.50;;;3.07;;
12222;SDS011;6174;49.058;8.524;2024-02-14T21:21:22;4.87;;;3.10;;
12222;SDS011;6174;49.058;8.524;2024-02-14T21:26:25;4.10;;;3.10;;
12222;SDS011;6174;49.058;8.524;2024-02-14T21:28:53;3.83;;;3.33;;
12222;SDS011;6174;49.058;8.524;2024-02-14T21:31:20;4.13;;;3.00;;
12222;SDS011;6174;49.058;8.524;2024-02-14T21:33:48;3.50;;;3.10;;
12222;SDS011;6174;49.058;8.524;2024-02-14T21:36:15;3.47;;;3.17;;
12222;SDS011;6174;49.058;8.524;2024-02-14T21:38:42;4.40;;;3.57;;
12222;SDS011;6174;49.058;8.524;2024-02-14T21:41:11;3.70;;;3.40;;
12222;SDS011;6174;49.058;8.524;2024-02-14T21:43:39;3.77;;;3.40;;
12222;SDS011;6174;49.058;8.524;2024-02-14T21:46:06;4.43;;;3.90;;
12222;SDS011;6174;49.058;8.524;2024-02-14T21:48:34;5.00;;;3.77;;
12222;SDS011;6174;49.058;8.524;2024-02-14T21:51:01;4.37;;;3.70;;
12222;SDS011;6174;49.058;8.524;2024-02-14T21:53:37;4.30;;;3.50;;
12222;SDS011;6174;49.058;8.524;2024-02-14T21:56:04;5.50;;;5.00;;
12222;SDS011;6174;49.058;8.524;2024-02-14T21:58:30;5.80;;;5.20;;
12222;SDS011;6174;49.058;8.524;2024-02-14T22:00:58;14.73;;;12.00;;
12222;SDS011;6174;49.058;8.524;2024-02-14T22:03:26;7.63;;;6.87;;
12222;SDS011;6174;49.058;8.524;2024-02-14T22:05:56;8.40;;;7.17;;
12222;SDS011;6174;49.058;8.524;2024-02-14T22:08:22;5.50;;;5.00;;
12222;SDS011;6174;49.058;8.524;2024-02-14T22:10:49;4.53;;;4.13;;
12222;SDS011;6174;49.058;8.524;2024-02-14T22:13:16;4.33;;;3.93;;
12222;SDS011;6174;49.058;8.524;2024-02-14T22:15:43;5.77;;;5.07;;
12222;SDS011;6174;49.058;8.524;2024-02-14T22:18:12;4.80;;;4.40;;
12222;SDS011;6174;49.058;8.524;2024-02-14T22:20:39;4.60;;;3.17;;
